sensor_id;sensor_type;location;lat;lon;timestamp;P1;durP1;ratioP1;P2;durP2;ratioP2
24617;SDS011;12762;51.730;5.356;2023-04-03T00:01:17;5.20;;;1.90;;
24617;SDS011;12762;51.730;5.356;2023-04-03T00:03:45;6.30;;;1.97;;
24617;SDS011;12762;51.730;5.356;2023-04-03T00:06:11;3.63;;;2.03;;
24617;SDS011;12762;51.730;5.356;2023-04-03T00:08:39;4.73;;;1.97;;
24617;SDS011;12762;51.730;5.356;2023-04-03T00:11:09;5.60;;;2.10;;
24617;SDS011;12762;51.730;5.356;2023-04-03T00:13:38;4.50;;;1.97;;
24617;SDS011;12762;51.730;5.356;2023-04-03T00:16:07;4.43;;;1.63;;
24617;SDS011;12762;51.730;5.356;2023-04-03T00:18:41;9.00;;;2.03;;
24617;SDS011;12762;51.730;5.356;2023-04-03T00:21:09;4.53;;;1.63;;
24617;SDS011;12762;51.730;5.356;2023-04-03T00:23:38;5.43;;;1.80;;
24617;SDS011;12762;51.730;5.356;2023-04-03T00:26:05;3.00;;;1.53;;
24617;SDS011;12762;51.730;5.356;2023-04-03T00:28:34;5.10;;;2.40;;
24617;SDS011;12762;51.730;5.356;2023-04-03T00:31:01;3.33;;;1.53;;
24617;SDS011;12762;51.730;5.356;2023-04-03T00:33:31;4.67;;;2.10;;
24617;SDS011;12762;51.730;5.356;2023-04-03T00:36:05;3.70;;;1.80;;
24617;SDS011;12762;51.730;5.356;2023-04-03T00:38:33;3.57;;;1.80;;
24617;SDS011;12762;51.730;5.356;2023-04-03T00:40:59;3.67;;;1.90;;
24617;SDS011;12762;51.730;5.356;2023-04-03T00:43:26;6.37;;;1.70;;
24617;SDS011;12762;51.730;5.356;2023-04-03T00:45:54;3.17;;;1.73;;
24617;SDS011;12762;51.730;5.356;2023-04-03T00:48:24;4.07;;;1.80;;
24617;SDS011;12762;51.730;5.356;2023-04-03T00:50:58;5.40;;;1.87;;
24617;SDS011;12762;51.730;5.356;2023-04-03T00:53:27;4.87;;;1.60;;
24617;SDS011;12762;51.730;5.356;2023-04-03T00:55:58;4.80;;;1.80;;
24617;SDS011;12762;51.730;5.356;2023-04-03T00:58:28;3.20;;;1.97;;
24617;SDS011;12762;51.730;5.356;2023-04-03T01:01:05;5.93;;;1.90;;
24617;SDS011;12762;51.730;5.356;2023-04-03T01:03:38;5.73;;;2.17;;
24617;SDS011;12762;51.730;5.356;2023-04-03T01:06:05;4.17;;;1.60;;
24617;SDS011;12762;51.730;5.356;2023-04-03T01:08:32;3.47;;;1.70;;
24617;SDS011;12762;51.730;5.356;2023-04-03T01:10:59;8.43;;;2.27;;
24617;SDS011;12762;51.730;5.356;2023-04-03T01:13:28;4.90;;;1.77;;
24617;SDS011;12762;51.730;5.356;2023-04-03T01:15:56;4.50;;;1.70;;
24617;SDS011;12762;51.730;5.356;2023-04-03T01:18:26;5.03;;;1.80;;
24617;SDS011;12762;51.730;5.356;2023-04-03T01:21:34;3.37;;;1.57;;
24617;SDS011;12762;51.730;5.356;2023-04-03T01:26:25;2.63;;;1.57;;
24617;SDS011;12762;51.730;5.356;2023-04-03T01:28:54;2.70;;;1.53;;
24617;SDS011;12762;51.730;5.356;2023-04-03T01:31:25;4.40;;;1.97;;
24617;SDS011;12762;51.730;5.356;2023-04-03T01:33:59;6.30;;;1.40;;
24617;SDS011;12762;51.730;5.356;2023-04-03T01:36:27;5.73;;;1.70;;
24617;SDS011;12762;51.730;5.356;2023-04-03T01:38:56;3.17;;;1.50;;
24617;SDS011;12762;51.730;5.356;2023-04-03T01:41:25;3.33;;;1.80;;
24617;SDS011;12762;51.730;5.356;2023-04-03T01:43:52;4.07;;;1.57;;
24617;SDS011;12762;51.730;5.356;2023-04-03T01:46:19;4.70;;;1.70;;
24617;SDS011;12762;51.730;5.356;2023-04-03T01:48:47;5.67;;;1.53;;
24617;SDS011;12762;51.730;5.356;2023-04-03T01:51:14;3.80;;;1.60;;
24617;SDS011;12762;51.730;5.356;2023-04-03T01:53:42;4.20;;;1.80;;
24617;SDS011;12762;51.730;5.356;2023-04-03T01:56:09;3.30;;;1.67;;
24617;SDS011;12762;51.730;5.356;2023-04-03T01:58:36;4.33;;;1.63;;
24617;SDS011;12762;51.730;5.356;2023-04-03T02:01:03;6.70;;;1.93;;
24617;SDS011;12762;51.730;5.356;2023-04-03T02:03:30;5.13;;;1.70;;
24617;SDS011;12762;51.730;5.356;2023-04-03T02:05:57;4.33;;;1.80;;
24617;SDS011;12762;51.730;5.356;2023-04-03T02:08:24;3.20;;;1.77;;
24617;SDS011;12762;51.730;5.356;2023-04-03T02:10:51;3.77;;;1.70;;
24617;SDS011;12762;51.730;5.356;2023-04-03T02:13:18;3.50;;;1.57;;
24617;SDS011;12762;51.730;5.356;2023-04-03T02:15:45;5.13;;;1.50;;
24617;SDS011;12762;51.730;5.356;2023-04-03T02:18:13;3.87;;;1.87;;
24617;SDS011;12762;51.730;5.356;2023-04-03T02:20:41;5.27;;;2.00;;
24617;SDS011;12762;51.730;5.356;2023-04-03T02:23:08;3.77;;;1.80;;
24617;SDS011;12762;51.730;5.356;2023-04-03T02:25:35;5.90;;;2.17;;
24617;SDS011;12762;51.730;5.356;2023-04-03T02:28:04;6.90;;;1.53;;
24617;SDS011;12762;51.730;5.356;2023-04-03T02:30:31;3.47;;;1.77;;
24617;SDS011;12762;51.730;5.356;2023-04-03T02:32:58;6.03;;;1.70;;
24617;SDS011;12762;51.730;5.356;2023-04-03T02:35:25;3.83;;;1.80;;
24617;SDS011;12762;51.730;5.356;2023-04-03T02:37:52;4.90;;;1.80;;
24617;SDS011;12762;51.730;5.356;2023-04-03T02:40:18;3.20;;;1.50;;
24617;SDS011;12762;51.730;5.356;2023-04-03T02:42:45;3.77;;;1.80;;
24617;SDS011;12762;51.730;5.356;2023-04-03T02:45:12;3.57;;;1.73;;
24617;SDS011;12762;51.730;5.356;2023-04-03T02:47:39;4.80;;;1.80;;
24617;SDS011;12762;51.730;5.356;2023-04-03T02:50:06;2.70;;;1.63;;
24617;SDS011;12762;51.730;5.356;2023-04-03T02:52:33;3.60;;;1.87;;
24617;SDS011;12762;51.730;5.356;2023-04-03T02:54:59;3.40;;;1.80;;
24617;SDS011;12762;51.730;5.356;2023-04-03T02:57:26;3.80;;;1.80;;
24617;SDS011;12762;51.730;5.356;2023-04-03T02:59:53;5.60;;;2.00;;
24617;SDS011;12762;51.730;5.356;2023-04-03T03:02:20;5.83;;;1.83;;
24617;SDS011;12762;51.730;5.356;2023-04-03T03:04:50;3.07;;;1.40;;
24617;SDS011;12762;51.730;5.356;2023-04-03T03:07:17;4.17;;;1.87;;
24617;SDS011;12762;51.730;5.356;2023-04-03T03:09:44;3.97;;;1.90;;
24617;SDS011;12762;51.730;5.356;2023-04-03T03:12:13;8.57;;;1.73;;
24617;SDS011;12762;51.730;5.356;2023-04-03T03:14:40;2.87;;;1.67;;
24617;SDS011;12762;51.730;5.356;2023-04-03T03:17:08;3.43;;;1.53;;
24617;SDS011;12762;51.730;5.356;2023-04-03T03:19:35;6.80;;;1.90;;
24617;SDS011;12762;51.730;5.356;2023-04-03T03:22:02;3.90;;;1.80;;
24617;SDS011;12762;51.730;5.356;2023-04-03T03:24:32;5.53;;;1.90;;
24617;SDS011;12762;51.730;5.356;2023-04-03T03:26:58;4.17;;;1.90;;
24617;SDS011;12762;51.730;5.356;2023-04-03T03:29:25;4.80;;;2.03;;
24617;SDS011;12762;51.730;5.356;2023-04-03T03:31:52;4.70;;;2.17;;
24617;SDS011;12762;51.730;5.356;2023-04-03T03:34:19;4.60;;;1.80;;
24617;SDS011;12762;51.730;5.356;2023-04-03T03:36:46;5.57;;;1.90;;
24617;SDS011;12762;51.730;5.356;2023-04-03T03:39:13;5.50;;;1.93;;
24617;SDS011;12762;51.730;5.356;2023-04-03T03:41:39;3.87;;;1.67;;
24617;SDS011;12762;51.730;5.356;2023-04-03T03:44:06;5.00;;;1.67;;
24617;SDS011;12762;51.730;5.356;2023-04-03T03:46:33;6.23;;;1.70;;
24617;SDS011;12762;51.730;5.356;2023-04-03T03:49:00;4.67;;;1.60;;
24617;SDS011;12762;51.730;5.356;2023-04-03T03:51:27;4.33;;;1.87;;
24617;SDS011;12762;51.730;5.356;2023-04-03T03:53:54;4.50;;;1.63;;
24617;SDS011;12762;51.730;5.356;2023-04-03T03:56:23;5.00;;;2.20;;
24617;SDS011;12762;51.730;5.356;2023-04-03T03:58:51;4.17;;;2.00;;
24617;SDS011;12762;51.730;5.356;2023-04-03T04:01:18;3.73;;;1.90;;
24617;SDS011;12762;51.730;5.356;2023-04-03T04:03:45;3.70;;;1.77;;
24617;SDS011;12762;51.730;5.356;2023-04-03T04:06:15;3.73;;;1.73;;
24617;SDS011;12762;51.730;5.356;2023-04-03T04:08:42;3.27;;;1.63;;
24617;SDS011;12762;51.730;5.356;2023-04-03T04:11:11;3.40;;;1.80;;
24617;SDS011;12762;51.730;5.356;2023-04-03T04:13:38;4.80;;;2.13;;
24617;SDS011;12762;51.730;5.356;2023-04-03T04:16:05;3.33;;;1.73;;
24617;SDS011;12762;51.730;5.356;2023-04-03T04:18:33;4.53;;;1.70;;
24617;SDS011;12762;51.730;5.356;2023-04-03T04:21:00;6.27;;;1.90;;
24617;SDS011;12762;51.730;5.356;2023-04-03T04:23:31;8.00;;;2.37;;
24617;SDS011;12762;51.730;5.356;2023-04-03T04:25:57;5.67;;;2.23;;
24617;SDS011;12762;51.730;5.356;2023-04-03T04:28:24;5.10;;;1.93;;
24617;SDS011;12762;51.730;5.356;2023-04-03T04:30:51;5.37;;;1.83;;
24617;SDS011;12762;51.730;5.356;2023-04-03T04:33:18;4.93;;;1.83;;
24617;SDS011;12762;51.730;5.356;2023-04-03T04:35:46;4.77;;;2.07;;
24617;SDS011;12762;51.730;5.356;2023-04-03T04:38:14;4.20;;;1.70;;
24617;SDS011;12762;51.730;5.356;2023-04-03T04:40:41;3.93;;;2.00;;
24617;SDS011;12762;51.730;5.356;2023-04-03T04:43:08;3.73;;;1.70;;
24617;SDS011;12762;51.730;5.356;2023-04-03T04:45:37;4.57;;;2.10;;
24617;SDS011;12762;51.730;5.356;2023-04-03T04:48:04;10.30;;;2.10;;
24617;SDS011;12762;51.730;5.356;2023-04-03T04:50:31;7.50;;;2.27;;
24617;SDS011;12762;51.730;5.356;2023-04-03T04:52:58;3.13;;;2.00;;
24617;SDS011;12762;51.730;5.356;2023-04-03T04:55:24;3.63;;;2.10;;
24617;SDS011;12762;51.730;5.356;2023-04-03T04:57:51;6.30;;;2.30;;
24617;SDS011;12762;51.730;5.356;2023-04-03T05:00:18;6.40;;;2.30;;
24617;SDS011;12762;51.730;5.356;2023-04-03T05:02:46;5.83;;;1.80;;
24617;SDS011;12762;51.730;5.356;2023-04-03T05:05:12;7.30;;;2.17;;
24617;SDS011;12762;51.730;5.356;2023-04-03T05:07:42;2.57;;;1.50;;
24617;SDS011;12762;51.730;5.356;2023-04-03T05:10:09;6.33;;;2.10;;
24617;SDS011;12762;51.730;5.356;2023-04-03T05:12:38;4.90;;;1.60;;
24617;SDS011;12762;51.730;5.356;2023-04-03T05:15:08;2.67;;;1.77;;
24617;SDS011;12762;51.730;5.356;2023-04-03T05:17:35;3.43;;;1.70;;
24617;SDS011;12762;51.730;5.356;2023-04-03T05:20:02;7.50;;;2.10;;
24617;SDS011;12762;51.730;5.356;2023-04-03T05:22:31;4.13;;;1.53;;
24617;SDS011;12762;51.730;5.356;2023-04-03T05:24:57;3.60;;;1.70;;
24617;SDS011;12762;51.730;5.356;2023-04-03T05:27:24;7.57;;;1.60;;
24617;SDS011;12762;51.730;5.356;2023-04-03T05:29:54;7.10;;;2.00;;
24617;SDS011;12762;51.730;5.356;2023-04-03T05:32:21;5.30;;;1.67;;
24617;SDS011;12762;51.730;5.356;2023-04-03T05:34:49;5.27;;;1.83;;
24617;SDS011;12762;51.730;5.356;2023-04-03T05:37:15;7.33;;;1.60;;
24617;SDS011;12762;51.730;5.356;2023-04-03T05:39:42;5.47;;;2.13;;
24617;SDS011;12762;51.730;5.356;2023-04-03T05:42:09;5.17;;;1.67;;
24617;SDS011;12762;51.730;5.356;2023-04-03T05:44:38;5.97;;;1.83;;
24617;SDS011;12762;51.730;5.356;2023-04-03T05:47:05;3.90;;;1.63;;
24617;SDS011;12762;51.730;5.356;2023-04-03T05:49:31;5.93;;;1.50;;
24617;SDS011;12762;51.730;5.356;2023-04-03T05:51:58;4.67;;;1.80;;
24617;SDS011;12762;51.730;5.356;2023-04-03T05:54:26;4.17;;;1.93;;
24617;SDS011;12762;51.730;5.356;2023-04-03T05:56:54;6.47;;;1.93;;
24617;SDS011;12762;51.730;5.356;2023-04-03T05:59:21;3.97;;;2.13;;
24617;SDS011;12762;51.730;5.356;2023-04-03T06:01:48;3.67;;;1.90;;
24617;SDS011;12762;51.730;5.356;2023-04-03T06:04:15;4.83;;;1.90;;
24617;SDS011;12762;51.730;5.356;2023-04-03T06:06:45;6.67;;;2.10;;
24617;SDS011;12762;51.730;5.356;2023-04-03T06:09:18;3.27;;;1.87;;
24617;SDS011;12762;51.730;5.356;2023-04-03T06:11:52;4.20;;;2.10;;
24617;SDS011;12762;51.730;5.356;2023-04-03T06:14:19;5.20;;;2.03;;
24617;SDS011;12762;51.730;5.356;2023-04-03T06:16:46;6.73;;;2.10;;
24617;SDS011;12762;51.730;5.356;2023-04-03T06:19:13;3.53;;;2.03;;
24617;SDS011;12762;51.730;5.356;2023-04-03T06:21:40;6.90;;;2.10;;
24617;SDS011;12762;51.730;5.356;2023-04-03T06:24:07;8.37;;;2.07;;
24617;SDS011;12762;51.730;5.356;2023-04-03T06:26:38;7.23;;;2.10;;
24617;SDS011;12762;51.730;5.356;2023-04-03T06:29:05;4.60;;;1.50;;
24617;SDS011;12762;51.730;5.356;2023-04-03T06:31:32;4.60;;;1.90;;
24617;SDS011;12762;51.730;5.356;2023-04-03T06:33:59;5.57;;;1.77;;
24617;SDS011;12762;51.730;5.356;2023-04-03T06:36:29;5.70;;;1.70;;
24617;SDS011;12762;51.730;5.356;2023-04-03T06:38:56;5.53;;;1.97;;
24617;SDS011;12762;51.730;5.356;2023-04-03T06:41:23;5.07;;;1.80;;
24617;SDS011;12762;51.730;5.356;2023-04-03T06:43:49;4.33;;;1.90;;
24617;SDS011;12762;51.730;5.356;2023-04-03T06:46:17;6.93;;;1.73;;
24617;SDS011;12762;51.730;5.356;2023-04-03T06:48:45;4.03;;;2.30;;
24617;SDS011;12762;51.730;5.356;2023-04-03T06:51:20;3.80;;;2.23;;
24617;SDS011;12762;51.730;5.356;2023-04-03T06:53:52;3.20;;;1.73;;
24617;SDS011;12762;51.730;5.356;2023-04-03T06:56:20;6.47;;;2.30;;
24617;SDS011;12762;51.730;5.356;2023-04-03T06:58:51;3.87;;;2.00;;
24617;SDS011;12762;51.730;5.356;2023-04-03T07:01:21;6.53;;;2.40;;
24617;SDS011;12762;51.730;5.356;2023-04-03T07:03:57;3.00;;;1.70;;
24617;SDS011;12762;51.730;5.356;2023-04-03T07:06:24;5.67;;;2.00;;
24617;SDS011;12762;51.730;5.356;2023-04-03T07:08:54;7.63;;;2.30;;
24617;SDS011;12762;51.730;5.356;2023-04-03T07:11:22;5.30;;;2.53;;
24617;SDS011;12762;51.730;5.356;2023-04-03T07:13:49;7.47;;;1.97;;
24617;SDS011;12762;51.730;5.356;2023-04-03T07:16:16;5.53;;;2.27;;
24617;SDS011;12762;51.730;5.356;2023-04-03T07:18:43;5.17;;;1.73;;
24617;SDS011;12762;51.730;5.356;2023-04-03T07:21:12;8.80;;;2.13;;
24617;SDS011;12762;51.730;5.356;2023-04-03T07:23:39;3.60;;;1.83;;
24617;SDS011;12762;51.730;5.356;2023-04-03T07:26:06;7.43;;;1.93;;
24617;SDS011;12762;51.730;5.356;2023-04-03T07:28:34;6.30;;;1.93;;
24617;SDS011;12762;51.730;5.356;2023-04-03T07:31:05;8.27;;;2.20;;
24617;SDS011;12762;51.730;5.356;2023-04-03T07:33:35;6.00;;;2.17;;
24617;SDS011;12762;51.730;5.356;2023-04-03T07:36:02;4.83;;;1.97;;
24617;SDS011;12762;51.730;5.356;2023-04-03T07:38:30;4.93;;;2.30;;
24617;SDS011;12762;51.730;5.356;2023-04-03T07:40:57;6.33;;;2.60;;
24617;SDS011;12762;51.730;5.356;2023-04-03T07:43:24;5.67;;;2.67;;
24617;SDS011;12762;51.730;5.356;2023-04-03T07:45:51;4.70;;;1.77;;
24617;SDS011;12762;51.730;5.356;2023-04-03T07:48:19;4.57;;;1.90;;
24617;SDS011;12762;51.730;5.356;2023-04-03T07:50:47;6.43;;;1.90;;
24617;SDS011;12762;51.730;5.356;2023-04-03T07:53:14;5.77;;;1.97;;
24617;SDS011;12762;51.730;5.356;2023-04-03T07:55:41;6.40;;;1.80;;
24617;SDS011;12762;51.730;5.356;2023-04-03T07:58:12;4.87;;;1.73;;
24617;SDS011;12762;51.730;5.356;2023-04-03T08:00:41;6.50;;;1.43;;
24617;SDS011;12762;51.730;5.356;2023-04-03T08:03:09;7.37;;;2.03;;
24617;SDS011;12762;51.730;5.356;2023-04-03T08:05:39;4.53;;;1.67;;
24617;SDS011;12762;51.730;5.356;2023-04-03T08:08:07;4.07;;;1.10;;
24617;SDS011;12762;51.730;5.356;2023-04-03T08:10:39;5.47;;;1.40;;
24617;SDS011;12762;51.730;5.356;2023-04-03T08:13:06;4.97;;;1.50;;
24617;SDS011;12762;51.730;5.356;2023-04-03T08:15:34;4.30;;;1.50;;
24617;SDS011;12762;51.730;5.356;2023-04-03T08:18:02;5.63;;;1.60;;
24617;SDS011;12762;51.730;5.356;2023-04-03T08:20:29;5.67;;;1.20;;
24617;SDS011;12762;51.730;5.356;2023-04-03T08:22:56;4.53;;;1.20;;
24617;SDS011;12762;51.730;5.356;2023-04-03T08:25:23;4.83;;;1.20;;
24617;SDS011;12762;51.730;5.356;2023-04-03T08:27:50;2.93;;;1.13;;
24617;SDS011;12762;51.730;5.356;2023-04-03T08:30:20;2.87;;;1.07;;
24617;SDS011;12762;51.730;5.356;2023-04-03T08:32:46;2.40;;;1.07;;
24617;SDS011;12762;51.730;5.356;2023-04-03T08:35:13;4.10;;;1.03;;
24617;SDS011;12762;51.730;5.356;2023-04-03T08:37:40;4.33;;;1.00;;
24617;SDS011;12762;51.730;5.356;2023-04-03T08:40:10;3.17;;;1.00;;
24617;SDS011;12762;51.730;5.356;2023-04-03T08:45:18;2.77;;;1.00;;
24617;SDS011;12762;51.730;5.356;2023-04-03T08:48:17;5.67;;;1.20;;
24617;SDS011;12762;51.730;5.356;2023-04-03T08:50:50;2.87;;;0.90;;
24617;SDS011;12762;51.730;5.356;2023-04-03T08:53:23;3.53;;;1.20;;
24617;SDS011;12762;51.730;5.356;2023-04-03T08:55:54;3.77;;;1.10;;
24617;SDS011;12762;51.730;5.356;2023-04-03T08:58:23;3.97;;;1.00;;
24617;SDS011;12762;51.730;5.356;2023-04-03T09:01:00;3.73;;;0.80;;
24617;SDS011;12762;51.730;5.356;2023-04-03T09:03:31;2.13;;;0.83;;
24617;SDS011;12762;51.730;5.356;2023-04-03T09:06:03;5.73;;;0.90;;
24617;SDS011;12762;51.730;5.356;2023-04-03T09:14:14;2.20;;;0.70;;
24617;SDS011;12762;51.730;5.356;2023-04-03T09:20:07;3.37;;;0.90;;
24617;SDS011;12762;51.730;5.356;2023-04-03T09:22:45;1.60;;;0.63;;
24617;SDS011;12762;51.730;5.356;2023-04-03T09:25:27;2.67;;;0.80;;
24617;SDS011;12762;51.730;5.356;2023-04-03T09:27:59;1.50;;;0.73;;
24617;SDS011;12762;51.730;5.356;2023-04-03T09:30:30;3.77;;;0.80;;
24617;SDS011;12762;51.730;5.356;2023-04-03T09:32:57;2.37;;;0.60;;
24617;SDS011;12762;51.730;5.356;2023-04-03T09:35:31;2.33;;;0.90;;
24617;SDS011;12762;51.730;5.356;2023-04-03T09:40:41;2.43;;;1.20;;
24617;SDS011;12762;51.730;5.356;2023-04-03T09:45:56;1.50;;;0.50;;
24617;SDS011;12762;51.730;5.356;2023-04-03T09:49:02;2.60;;;0.43;;
24617;SDS011;12762;51.730;5.356;2023-04-03T09:51:35;0.60;;;0.50;;
24617;SDS011;12762;51.730;5.356;2023-04-03T09:54:23;1.53;;;0.57;;
24617;SDS011;12762;51.730;5.356;2023-04-03T09:56:57;0.97;;;0.40;;
24617;SDS011;12762;51.730;5.356;2023-04-03T09:59:32;1.23;;;0.50;;
24617;SDS011;12762;51.730;5.356;2023-04-03T10:04:42;2.40;;;0.50;;
24617;SDS011;12762;51.730;5.356;2023-04-03T10:07:25;0.87;;;0.37;;
24617;SDS011;12762;51.730;5.356;2023-04-03T10:12:41;1.00;;;0.40;;
24617;SDS011;12762;51.730;5.356;2023-04-03T10:15:11;1.17;;;0.37;;
24617;SDS011;12762;51.730;5.356;2023-04-03T10:25:49;0.93;;;0.40;;
24617;SDS011;12762;51.730;5.356;2023-04-03T10:28:48;2.03;;;1.10;;
24617;SDS011;12762;51.730;5.356;2023-04-03T10:31:25;1.63;;;0.40;;
24617;SDS011;12762;51.730;5.356;2023-04-03T10:34:04;1.67;;;0.40;;
24617;SDS011;12762;51.730;5.356;2023-04-03T10:36:42;0.57;;;0.30;;
24617;SDS011;12762;51.730;5.356;2023-04-03T10:45:44;1.07;;;0.40;;
24617;SDS011;12762;51.730;5.356;2023-04-03T10:48:24;1.27;;;0.30;;
24617;SDS011;12762;51.730;5.356;2023-04-03T10:54:00;2.13;;;0.43;;
24617;SDS011;12762;51.730;5.356;2023-04-03T10:56:36;0.70;;;0.30;;
24617;SDS011;12762;51.730;5.356;2023-04-03T10:59:37;1.00;;;0.40;;
24617;SDS011;12762;51.730;5.356;2023-04-03T11:05:41;0.80;;;0.30;;
24617;SDS011;12762;51.730;5.356;2023-04-03T11:11:19;0.83;;;0.20;;
24617;SDS011;12762;51.730;5.356;2023-04-03T11:13:56;1.13;;;0.20;;
24617;SDS011;12762;51.730;5.356;2023-04-03T11:16:46;1.00;;;0.30;;
24617;SDS011;12762;51.730;5.356;2023-04-03T11:19:20;0.87;;;0.40;;
24617;SDS011;12762;51.730;5.356;2023-04-03T11:21:56;1.50;;;0.20;;
24617;SDS011;12762;51.730;5.356;2023-04-03T11:24:31;0.97;;;0.40;;
24617;SDS011;12762;51.730;5.356;2023-04-03T11:26:59;1.00;;;0.30;;
24617;SDS011;12762;51.730;5.356;2023-04-03T11:29:34;1.80;;;0.53;;
24617;SDS011;12762;51.730;5.356;2023-04-03T11:35:22;1.53;;;0.33;;
24617;SDS011;12762;51.730;5.356;2023-04-03T11:37:52;1.80;;;0.40;;
24617;SDS011;12762;51.730;5.356;2023-04-03T11:40:25;0.70;;;0.50;;
24617;SDS011;12762;51.730;5.356;2023-04-03T11:45:33;2.93;;;0.57;;
24617;SDS011;12762;51.730;5.356;2023-04-03T11:50:56;1.50;;;0.37;;
24617;SDS011;12762;51.730;5.356;2023-04-03T11:55:57;1.13;;;0.60;;
24617;SDS011;12762;51.730;5.356;2023-04-03T11:58:28;2.30;;;0.40;;
24617;SDS011;12762;51.730;5.356;2023-04-03T12:00:59;2.37;;;0.87;;
24617;SDS011;12762;51.730;5.356;2023-04-03T12:08:46;0.97;;;0.50;;
24617;SDS011;12762;51.730;5.356;2023-04-03T12:11:23;2.90;;;0.50;;
24617;SDS011;12762;51.730;5.356;2023-04-03T12:22:18;1.27;;;0.43;;
24617;SDS011;12762;51.730;5.356;2023-04-03T12:24:55;3.00;;;0.70;;
24617;SDS011;12762;51.730;5.356;2023-04-03T12:27:26;2.00;;;0.67;;
24617;SDS011;12762;51.730;5.356;2023-04-03T12:29:58;4.03;;;0.73;;
24617;SDS011;12762;51.730;5.356;2023-04-03T12:38:12;1.20;;;0.60;;
24617;SDS011;12762;51.730;5.356;2023-04-03T12:41:11;1.00;;;0.60;;
24617;SDS011;12762;51.730;5.356;2023-04-03T12:44:33;1.47;;;0.63;;
24617;SDS011;12762;51.730;5.356;2023-04-03T12:46:49;2.27;;;0.50;;
24617;SDS011;12762;51.730;5.356;2023-04-03T12:49:38;2.73;;;0.77;;
24617;SDS011;12762;51.730;5.356;2023-04-03T12:52:19;2.10;;;0.77;;
24617;SDS011;12762;51.730;5.356;2023-04-03T12:54:46;2.93;;;0.67;;
24617;SDS011;12762;51.730;5.356;2023-04-03T12:57:18;1.17;;;0.60;;
24617;SDS011;12762;51.730;5.356;2023-04-03T12:59:47;2.10;;;0.77;;
24617;SDS011;12762;51.730;5.356;2023-04-03T13:02:25;1.47;;;0.73;;
24617;SDS011;12762;51.730;5.356;2023-04-03T13:04:53;0.93;;;0.40;;
24617;SDS011;12762;51.730;5.356;2023-04-03T13:07:25;3.77;;;1.17;;
24617;SDS011;12762;51.730;5.356;2023-04-03T13:15:21;3.93;;;0.93;;
24617;SDS011;12762;51.730;5.356;2023-04-03T13:17:54;1.80;;;0.80;;
24617;SDS011;12762;51.730;5.356;2023-04-03T13:20:24;3.00;;;0.70;;
24617;SDS011;12762;51.730;5.356;2023-04-03T13:22:57;2.67;;;0.80;;
24617;SDS011;12762;51.730;5.356;2023-04-03T13:25:24;3.87;;;0.90;;
24617;SDS011;12762;51.730;5.356;2023-04-03T13:27:53;3.33;;;0.80;;
24617;SDS011;12762;51.730;5.356;2023-04-03T13:30:41;2.23;;;0.80;;
24617;SDS011;12762;51.730;5.356;2023-04-03T13:33:23;2.80;;;0.80;;
24617;SDS011;12762;51.730;5.356;2023-04-03T13:36:00;1.83;;;0.93;;
24617;SDS011;12762;51.730;5.356;2023-04-03T13:39:03;1.73;;;0.70;;
24617;SDS011;12762;51.730;5.356;2023-04-03T13:41:31;3.53;;;1.00;;
24617;SDS011;12762;51.730;5.356;2023-04-03T13:44:26;2.37;;;1.00;;
24617;SDS011;12762;51.730;5.356;2023-04-03T13:49:38;4.73;;;1.00;;
24617;SDS011;12762;51.730;5.356;2023-04-03T13:55:15;2.13;;;0.80;;
24617;SDS011;12762;51.730;5.356;2023-04-03T13:57:55;2.60;;;1.00;;
24617;SDS011;12762;51.730;5.356;2023-04-03T14:00:28;3.77;;;0.80;;
24617;SDS011;12762;51.730;5.356;2023-04-03T14:03:33;2.30;;;0.80;;
24617;SDS011;12762;51.730;5.356;2023-04-03T14:06:06;3.10;;;0.90;;
24617;SDS011;12762;51.730;5.356;2023-04-03T14:08:37;1.57;;;0.80;;
24617;SDS011;12762;51.730;5.356;2023-04-03T14:14:09;1.63;;;0.80;;
24617;SDS011;12762;51.730;5.356;2023-04-03T14:16:43;1.43;;;0.80;;
24617;SDS011;12762;51.730;5.356;2023-04-03T14:19:42;3.63;;;0.90;;
24617;SDS011;12762;51.730;5.356;2023-04-03T14:22:23;4.37;;;0.83;;
24617;SDS011;12762;51.730;5.356;2023-04-03T14:24:51;3.93;;;1.07;;
24617;SDS011;12762;51.730;5.356;2023-04-03T14:29:48;2.30;;;0.73;;
24617;SDS011;12762;51.730;5.356;2023-04-03T14:32:16;1.80;;;0.73;;
24617;SDS011;12762;51.730;5.356;2023-04-03T14:34:45;1.97;;;0.80;;
24617;SDS011;12762;51.730;5.356;2023-04-03T14:37:13;1.93;;;0.90;;
24617;SDS011;12762;51.730;5.356;2023-04-03T14:39:42;4.38;;;1.10;;
24617;SDS011;12762;51.730;5.356;2023-04-03T14:42:11;3.33;;;1.00;;
24617;SDS011;12762;51.730;5.356;2023-04-03T14:44:40;2.73;;;0.80;;
24617;SDS011;12762;51.730;5.356;2023-04-03T14:47:11;2.80;;;1.10;;
24617;SDS011;12762;51.730;5.356;2023-04-03T14:49:56;2.37;;;0.90;;
24617;SDS011;12762;51.730;5.356;2023-04-03T14:52:32;3.63;;;1.23;;
24617;SDS011;12762;51.730;5.356;2023-04-03T14:55:01;0.80;;;0.60;;
24617;SDS011;12762;51.730;5.356;2023-04-03T14:57:32;2.90;;;1.00;;
24617;SDS011;12762;51.730;5.356;2023-04-03T15:00:02;2.70;;;1.13;;
24617;SDS011;12762;51.730;5.356;2023-04-03T15:02:37;2.63;;;0.80;;
24617;SDS011;12762;51.730;5.356;2023-04-03T15:05:06;2.90;;;1.07;;
24617;SDS011;12762;51.730;5.356;2023-04-03T15:07:36;5.93;;;1.37;;
24617;SDS011;12762;51.730;5.356;2023-04-03T15:10:27;2.90;;;1.30;;
24617;SDS011;12762;51.730;5.356;2023-04-03T15:12:54;2.77;;;1.17;;
24617;SDS011;12762;51.730;5.356;2023-04-03T15:15:22;2.30;;;1.07;;
24617;SDS011;12762;51.730;5.356;2023-04-03T15:17:54;2.13;;;0.90;;
24617;SDS011;12762;51.730;5.356;2023-04-03T15:20:25;2.27;;;0.90;;
24617;SDS011;12762;51.730;5.356;2023-04-03T15:22:54;2.23;;;0.80;;
24617;SDS011;12762;51.730;5.356;2023-04-03T15:25:22;2.83;;;0.80;;
24617;SDS011;12762;51.730;5.356;2023-04-03T15:27:52;3.20;;;1.03;;
24617;SDS011;12762;51.730;5.356;2023-04-03T15:30:20;2.40;;;0.67;;
24617;SDS011;12762;51.730;5.356;2023-04-03T15:32:47;2.63;;;0.87;;
24617;SDS011;12762;51.730;5.356;2023-04-03T15:35:15;2.73;;;1.13;;
24617;SDS011;12762;51.730;5.356;2023-04-03T15:37:42;4.87;;;1.10;;
24617;SDS011;12762;51.730;5.356;2023-04-03T15:40:12;4.57;;;0.90;;
24617;SDS011;12762;51.730;5.356;2023-04-03T15:42:39;2.13;;;0.83;;
24617;SDS011;12762;51.730;5.356;2023-04-03T15:45:06;2.70;;;0.83;;
24617;SDS011;12762;51.730;5.356;2023-04-03T15:47:34;3.00;;;1.00;;
24617;SDS011;12762;51.730;5.356;2023-04-03T15:50:02;1.70;;;1.00;;
24617;SDS011;12762;51.730;5.356;2023-04-03T15:52:32;3.17;;;1.10;;
24617;SDS011;12762;51.730;5.356;2023-04-03T15:54:59;4.00;;;1.37;;
24617;SDS011;12762;51.730;5.356;2023-04-03T15:57:28;3.97;;;0.90;;
24617;SDS011;12762;51.730;5.356;2023-04-03T15:59:55;3.77;;;1.17;;
24617;SDS011;12762;51.730;5.356;2023-04-03T16:02:22;2.37;;;1.10;;
24617;SDS011;12762;51.730;5.356;2023-04-03T16:04:54;4.37;;;1.40;;
24617;SDS011;12762;51.730;5.356;2023-04-03T16:07:21;3.20;;;1.20;;
24617;SDS011;12762;51.730;5.356;2023-04-03T16:09:48;4.13;;;1.03;;
24617;SDS011;12762;51.730;5.356;2023-04-03T16:12:15;3.20;;;0.93;;
24617;SDS011;12762;51.730;5.356;2023-04-03T16:14:41;2.23;;;1.20;;
24617;SDS011;12762;51.730;5.356;2023-04-03T16:17:08;3.13;;;0.90;;
24617;SDS011;12762;51.730;5.356;2023-04-03T16:19:38;4.30;;;1.10;;
24617;SDS011;12762;51.730;5.356;2023-04-03T16:22:04;6.23;;;1.30;;
24617;SDS011;12762;51.730;5.356;2023-04-03T16:24:31;2.23;;;1.10;;
24617;SDS011;12762;51.730;5.356;2023-04-03T16:26:58;3.23;;;1.00;;
24617;SDS011;12762;51.730;5.356;2023-04-03T16:29:25;4.60;;;1.40;;
24617;SDS011;12762;51.730;5.356;2023-04-03T16:31:52;5.87;;;1.10;;
24617;SDS011;12762;51.730;5.356;2023-04-03T16:34:21;2.23;;;1.00;;
24617;SDS011;12762;51.730;5.356;2023-04-03T16:36:48;2.63;;;1.00;;
24617;SDS011;12762;51.730;5.356;2023-04-03T16:39:15;3.10;;;1.10;;
24617;SDS011;12762;51.730;5.356;2023-04-03T16:41:42;4.87;;;1.20;;
24617;SDS011;12762;51.730;5.356;2023-04-03T16:44:08;2.47;;;1.00;;